sensor_id;sensor_type;location;lat;lon;timestamp;pressure;altitude;pressure_sealevel;temperature;humidity
66560;BME280;53413;49.878;8.142;2023-05-09T00:01:34;100261.94;;;12.58;100.00
66560;BME280;53413;49.878;8.142;2023-05-09T00:04:00;100261.47;;;12.48;100.00
66560;BME280;53413;49.878;8.142;2023-05-09T00:06:26;100268.81;;;12.40;100.00
66560;BME280;53413;49.878;8.142;2023-05-09T00:08:53;100269.13;;;12.32;100.00
66560;BME280;53413;49.878;8.142;2023-05-09T00:11:19;100261.56;;;12.24;100.00
66560;BME280;53413;49.878;8.142;2023-05-09T00:13:44;100267.88;;;12.20;100.00
66560;BME280;53413;49.878;8.142;2023-05-09T00:16:10;100259.94;;;12.22;100.00
66560;BME280;53413;49.878;8.142;2023-05-09T00:18:36;100263.19;;;12.27;100.00
66560;BME280;53413;49.878;8.142;2023-05-09T00:21:01;100263.03;;;12.31;100.00
66560;BME280;53413;49.878;8.142;2023-05-09T00:23:31;100254.97;;;12.36;100.00
66560;BME280;53413;49.878;8.142;2023-05-09T00:25:57;100258.22;;;12.41;100.00
66560;BME280;53413;49.878;8.142;2023-05-09T00:28:23;100254.66;;;12.44;100.00
66560;BME280;53413;49.878;8.142;2023-05-09T00:30:48;100241.50;;;12.44;100.00
66560;BME280;53413;49.878;8.142;2023-05-09T00:33:14;100235.56;;;12.39;100.00
66560;BME280;53413;49.878;8.142;2023-05-09T00:35:39;100235.69;;;12.36;100.00
66560;BME280;53413;49.878;8.142;2023-05-09T00:38:07;100244.75;;;12.28;100.00
66560;BME280;53413;49.878;8.142;2023-05-09T00:40:33;100238.91;;;12.22;100.00
66560;BME280;53413;49.878;8.142;2023-05-09T00:42:58;100236.59;;;12.14;100.00
66560;BME280;53413;49.878;8.142;2023-05-09T00:45:24;100240.25;;;12.10;100.00
66560;BME280;53413;49.878;8.142;2023-05-09T00:47:50;100243.03;;;12.07;100.00
66560;BME280;53413;49.878;8.142;2023-05-09T00:50:15;100239.59;;;12.05;100.00
66560;BME280;53413;49.878;8.142;2023-05-09T00:52:41;100234.53;;;12.00;100.00
66560;BME280;53413;49.878;8.142;2023-05-09T00:55:07;100237.31;;;11.95;100.00
66560;BME280;53413;49.878;8.142;2023-05-09T00:57:33;100235.72;;;11.91;100.00
66560;BME280;53413;49.878;8.142;2023-05-09T00:59:59;100231.47;;;11.89;100.00
66560;BME280;53413;49.878;8.142;2023-05-09T01:02:25;100228.94;;;11.85;100.00
66560;BME280;53413;49.878;8.142;2023-05-09T01:04:52;100228.25;;;11.80;100.00
66560;BME280;53413;49.878;8.142;2023-05-09T01:07:28;100220.47;;;11.79;100.00
66560;BME280;53413;49.878;8.142;2023-05-09T01:12:53;100212.88;;;11.71;100.00
66560;BME280;53413;49.878;8.142;2023-05-09T01:20:38;100212.47;;;11.60;100.00
66560;BME280;53413;49.878;8.142;2023-05-09T01:26:01;100215.56;;;11.47;100.00
66560;BME280;53413;49.878;8.142;2023-05-09T01:28:40;100209.47;;;11.47;100.00
66560;BME280;53413;49.878;8.142;2023-05-09T01:31:11;100192.00;;;11.46;100.00
66560;BME280;53413;49.878;8.142;2023-05-09T01:33:39;100195.59;;;11.43;100.00
66560;BME280;53413;49.878;8.142;2023-05-09T01:36:13;100198.47;;;11.37;100.00
66560;BME280;53413;49.878;8.142;2023-05-09T01:38:41;100197.75;;;11.33;100.00
66560;BME280;53413;49.878;8.142;2023-05-09T01:41:09;100200.47;;;11.30;100.00
66560;BME280;53413;49.878;8.142;2023-05-09T01:43:37;100206.75;;;11.26;100.00
66560;BME280;53413;49.878;8.142;2023-05-09T01:46:04;100208.59;;;11.24;100.00
66560;BME280;53413;49.878;8.142;2023-05-09T01:48:30;100203.44;;;11.21;100.00
66560;BME280;53413;49.878;8.142;2023-05-09T01:50:56;100195.69;;;11.18;100.00
66560;BME280;53413;49.878;8.142;2023-05-09T01:53:23;100197.56;;;11.14;100.00
66560;BME280;53413;49.878;8.142;2023-05-09T01:55:50;100199.31;;;11.14;100.00
66560;BME280;53413;49.878;8.142;2023-05-09T01:58:17;100191.59;;;11.11;100.00
66560;BME280;53413;49.878;8.142;2023-05-09T02:00:44;100190.00;;;11.06;100.00
66560;BME280;53413;49.878;8.142;2023-05-09T02:03:12;100186.69;;;11.01;100.00
66560;BME280;53413;49.878;8.142;2023-05-09T02:05:38;100185.13;;;10.96;100.00
66560;BME280;53413;49.878;8.142;2023-05-09T02:08:04;100187.94;;;10.91;100.00
66560;BME280;53413;49.878;8.142;2023-05-09T02:10:31;100194.22;;;10.87;100.00
66560;BME280;53413;49.878;8.142;2023-05-09T02:12:57;100190.78;;;10.85;100.00
66560;BME280;53413;49.878;8.142;2023-05-09T02:15:23;100184.81;;;10.81;100.00
66560;BME280;53413;49.878;8.142;2023-05-09T02:17:48;100186.63;;;10.79;100.00
66560;BME280;53413;49.878;8.142;2023-05-09T02:20:14;100184.19;;;10.74;100.00
66560;BME280;53413;49.878;8.142;2023-05-09T02:22:41;100186.00;;;10.72;100.00
66560;BME280;53413;49.878;8.142;2023-05-09T02:25:08;100187.81;;;10.70;100.00
66560;BME280;53413;49.878;8.142;2023-05-09T02:27:37;100182.66;;;10.67;100.00
66560;BME280;53413;49.878;8.142;2023-05-09T02:30:06;100183.72;;;10.63;100.00
66560;BME280;53413;49.878;8.142;2023-05-09T02:32:33;100174.25;;;10.59;100.00
66560;BME280;53413;49.878;8.142;2023-05-09T02:35:01;100181.34;;;10.55;100.00
66560;BME280;53413;49.878;8.142;2023-05-09T02:37:28;100169.34;;;10.50;100.00
66560;BME280;53413;49.878;8.142;2023-05-09T02:39:54;100171.25;;;10.44;100.00
66560;BME280;53413;49.878;8.142;2023-05-09T02:42:22;100170.44;;;10.42;100.00
66560;BME280;53413;49.878;8.142;2023-05-09T02:44:50;100167.06;;;10.39;100.00
66560;BME280;53413;49.878;8.142;2023-05-09T02:47:15;100173.25;;;10.36;100.00
66560;BME280;53413;49.878;8.142;2023-05-09T02:49:41;100165.56;;;10.31;100.00
66560;BME280;53413;49.878;8.142;2023-05-09T02:52:06;100159.50;;;10.29;100.00
66560;BME280;53413;49.878;8.142;2023-05-09T02:54:32;100164.81;;;10.28;100.00
66560;BME280;53413;49.878;8.142;2023-05-09T02:56:57;100160.41;;;10.28;100.00
66560;BME280;53413;49.878;8.142;2023-05-09T02:59:24;100167.31;;;10.31;100.00
66560;BME280;53413;49.878;8.142;2023-05-09T03:01:50;100164.50;;;10.37;100.00
66560;BME280;53413;49.878;8.142;2023-05-09T03:04:16;100165.91;;;10.47;100.00
66560;BME280;53413;49.878;8.142;2023-05-09T03:06:42;100161.94;;;10.61;100.00
66560;BME280;53413;49.878;8.142;2023-05-09T03:09:07;100167.53;;;10.75;100.00
66560;BME280;53413;49.878;8.142;2023-05-09T03:11:34;100169.56;;;10.91;100.00
66560;BME280;53413;49.878;8.142;2023-05-09T03:14:01;100169.94;;;11.05;100.00
66560;BME280;53413;49.878;8.142;2023-05-09T03:16:26;100166.72;;;11.21;100.00
66560;BME280;53413;49.878;8.142;2023-05-09T03:18:51;100162.56;;;11.37;100.00
66560;BME280;53413;49.878;8.142;2023-05-09T03:21:17;100157.47;;;11.57;100.00
66560;BME280;53413;49.878;8.142;2023-05-09T03:23:42;100152.50;;;11.71;100.00
66560;BME280;53413;49.878;8.142;2023-05-09T03:26:07;100138.88;;;11.83;100.00
66560;BME280;53413;49.878;8.142;2023-05-09T03:28:33;100140.19;;;11.94;100.00
66560;BME280;53413;49.878;8.142;2023-05-09T03:30:58;100140.59;;;12.07;100.00
66560;BME280;53413;49.878;8.142;2023-05-09T03:33:24;100130.59;;;12.15;100.00
66560;BME280;53413;49.878;8.142;2023-05-09T03:35:50;100124.31;;;12.19;100.00
66560;BME280;53413;49.878;8.142;2023-05-09T03:38:15;100120.00;;;12.16;100.00
66560;BME280;53413;49.878;8.142;2023-05-09T03:40:40;100127.97;;;12.15;100.00
66560;BME280;53413;49.878;8.142;2023-05-09T03:43:06;100121.94;;;12.13;100.00
66560;BME280;53413;49.878;8.142;2023-05-09T03:45:31;100119.28;;;12.13;100.00
66560;BME280;53413;49.878;8.142;2023-05-09T03:47:57;100110.78;;;12.08;100.00
66560;BME280;53413;49.878;8.142;2023-05-09T03:50:22;100108.41;;;12.01;100.00
66560;BME280;53413;49.878;8.142;2023-05-09T03:52:47;100110.31;;;11.98;100.00
66560;BME280;53413;49.878;8.142;2023-05-09T03:55:14;100102.34;;;11.99;100.00
66560;BME280;53413;49.878;8.142;2023-05-09T03:57:39;100104.78;;;12.04;100.00
66560;BME280;53413;49.878;8.142;2023-05-09T04:00:05;100118.38;;;12.14;100.00
66560;BME280;53413;49.878;8.142;2023-05-09T04:02:32;100117.94;;;12.25;100.00
66560;BME280;53413;49.878;8.142;2023-05-09T04:04:59;100114.69;;;12.39;100.00
66560;BME280;53413;49.878;8.142;2023-05-09T04:07:24;100122.72;;;12.55;100.00
66560;BME280;53413;49.878;8.142;2023-05-09T04:09:50;100117.72;;;12.69;100.00
66560;BME280;53413;49.878;8.142;2023-05-09T04:12:16;100114.53;;;12.82;100.00
66560;BME280;53413;49.878;8.142;2023-05-09T04:14:41;100108.63;;;12.96;100.00
66560;BME280;53413;49.878;8.142;2023-05-09T04:17:07;100108.84;;;13.10;100.00
66560;BME280;53413;49.878;8.142;2023-05-09T04:19:32;100110.09;;;13.20;100.00
66560;BME280;53413;49.878;8.142;2023-05-09T04:21:58;100108.72;;;13.31;100.00
66560;BME280;53413;49.878;8.142;2023-05-09T04:24:23;100101.47;;;13.36;100.00
66560;BME280;53413;49.878;8.142;2023-05-09T04:26:48;100105.72;;;13.38;100.00
66560;BME280;53413;49.878;8.142;2023-05-09T04:29:15;100099.69;;;13.36;100.00
66560;BME280;53413;49.878;8.142;2023-05-09T04:31:40;100104.19;;;13.34;100.00
66560;BME280;53413;49.878;8.142;2023-05-09T04:34:05;100105.16;;;13.32;100.00
66560;BME280;53413;49.878;8.142;2023-05-09T04:36:31;100099.75;;;13.35;100.00
66560;BME280;53413;49.878;8.142;2023-05-09T04:38:58;100095.19;;;13.40;100.00
66560;BME280;53413;49.878;8.142;2023-05-09T04:41:23;100089.50;;;13.48;100.00
66560;BME280;53413;49.878;8.142;2023-05-09T04:43:49;100082.72;;;13.61;100.00
66560;BME280;53413;49.878;8.142;2023-05-09T04:46:14;100093.03;;;13.83;100.00
66560;BME280;53413;49.878;8.142;2023-05-09T04:48:40;100078.75;;;14.05;100.00
66560;BME280;53413;49.878;8.142;2023-05-09T04:51:05;100082.75;;;14.30;100.00
66560;BME280;53413;49.878;8.142;2023-05-09T04:53:31;100080.41;;;14.41;100.00
66560;BME280;53413;49.878;8.142;2023-05-09T04:55:56;100080.91;;;14.48;100.00
66560;BME280;53413;49.878;8.142;2023-05-09T04:58:21;100075.56;;;14.50;100.00
66560;BME280;53413;49.878;8.142;2023-05-09T05:00:47;100075.91;;;14.59;100.00
66560;BME280;53413;49.878;8.142;2023-05-09T05:03:13;100069.47;;;14.65;100.00
66560;BME280;53413;49.878;8.142;2023-05-09T05:05:38;100062.63;;;14.78;100.00
66560;BME280;53413;49.878;8.142;2023-05-09T05:08:05;100061.09;;;14.90;100.00
66560;BME280;53413;49.878;8.142;2023-05-09T05:10:31;100053.59;;;14.99;100.00
66560;BME280;53413;49.878;8.142;2023-05-09T05:12:56;100051.63;;;15.18;100.00
66560;BME280;53413;49.878;8.142;2023-05-09T05:15:21;100053.72;;;15.44;100.00
66560;BME280;53413;49.878;8.142;2023-05-09T05:17:47;100059.78;;;15.60;100.00
66560;BME280;53413;49.878;8.142;2023-05-09T05:20:12;100054.09;;;15.82;100.00
66560;BME280;53413;49.878;8.142;2023-05-09T05:22:37;100056.34;;;16.05;100.00
66560;BME280;53413;49.878;8.142;2023-05-09T05:25:03;100065.88;;;16.22;100.00
66560;BME280;53413;49.878;8.142;2023-05-09T05:27:29;100056.53;;;16.30;100.00
66560;BME280;53413;49.878;8.142;2023-05-09T05:29:54;100054.34;;;16.52;100.00
66560;BME280;53413;49.878;8.142;2023-05-09T05:32:20;100056.88;;;16.68;100.00
66560;BME280;53413;49.878;8.142;2023-05-09T05:34:45;100052.13;;;16.87;100.00
66560;BME280;53413;49.878;8.142;2023-05-09T05:37:10;100053.06;;;17.01;100.00
66560;BME280;53413;49.878;8.142;2023-05-09T05:39:36;100054.34;;;17.08;100.00
66560;BME280;53413;49.878;8.142;2023-05-09T05:42:01;100057.56;;;17.13;100.00
66560;BME280;53413;49.878;8.142;2023-05-09T05:44:26;100054.66;;;17.03;100.00
66560;BME280;53413;49.878;8.142;2023-05-09T05:46:52;100057.84;;;17.08;100.00
66560;BME280;53413;49.878;8.142;2023-05-09T05:49:17;100055.50;;;17.04;100.00
66560;BME280;53413;49.878;8.142;2023-05-09T05:51:42;100043.59;;;17.11;100.00
66560;BME280;53413;49.878;8.142;2023-05-09T05:54:08;100037.94;;;17.30;100.00
66560;BME280;53413;49.878;8.142;2023-05-09T05:56:33;100044.63;;;17.49;100.00
66560;BME280;53413;49.878;8.142;2023-05-09T05:58:58;100040.09;;;17.64;100.00
66560;BME280;53413;49.878;8.142;2023-05-09T06:01:24;100048.59;;;17.69;100.00
66560;BME280;53413;49.878;8.142;2023-05-09T06:03:49;100048.28;;;17.61;100.00
66560;BME280;53413;49.878;8.142;2023-05-09T06:06:19;100049.09;;;17.48;100.00
66560;BME280;53413;49.878;8.142;2023-05-09T06:08:46;100041.47;;;17.44;100.00
66560;BME280;53413;49.878;8.142;2023-05-09T06:11:14;100036.88;;;17.33;100.00
66560;BME280;53413;49.878;8.142;2023-05-09T06:13:39;100036.22;;;17.29;100.00
66560;BME280;53413;49.878;8.142;2023-05-09T06:16:05;100034.41;;;17.30;100.00
66560;BME280;53413;49.878;8.142;2023-05-09T06:18:31;100036.22;;;17.29;100.00
66560;BME280;53413;49.878;8.142;2023-05-09T06:20:56;100041.41;;;17.31;100.00
66560;BME280;53413;49.878;8.142;2023-05-09T06:23:21;100039.50;;;17.33;100.00
66560;BME280;53413;49.878;8.142;2023-05-09T06:25:47;100039.38;;;17.21;100.00
66560;BME280;53413;49.878;8.142;2023-05-09T06:28:13;100033.00;;;17.11;100.00
66560;BME280;53413;49.878;8.142;2023-05-09T06:30:38;100030.78;;;17.18;100.00
66560;BME280;53413;49.878;8.142;2023-05-09T06:33:04;100026.06;;;17.36;100.00
66560;BME280;53413;49.878;8.142;2023-05-09T06:35:29;100027.16;;;17.46;100.00
66560;BME280;53413;49.878;8.142;2023-05-09T06:37:54;100024.50;;;17.46;100.00
66560;BME280;53413;49.878;8.142;2023-05-09T06:40:20;100015.81;;;17.44;100.00
66560;BME280;53413;49.878;8.142;2023-05-09T06:42:45;100012.72;;;17.37;100.00
66560;BME280;53413;49.878;8.142;2023-05-09T06:45:11;100010.72;;;17.41;100.00
66560;BME280;53413;49.878;8.142;2023-05-09T06:47:36;100011.06;;;17.49;100.00
66560;BME280;53413;49.878;8.142;2023-05-09T06:50:01;100007.16;;;17.55;100.00
66560;BME280;53413;49.878;8.142;2023-05-09T06:52:27;100001.75;;;17.57;100.00
66560;BME280;53413;49.878;8.142;2023-05-09T06:54:52;100007.47;;;17.63;100.00
66560;BME280;53413;49.878;8.142;2023-05-09T06:57:18;99995.50;;;17.70;100.00
66560;BME280;53413;49.878;8.142;2023-05-09T06:59:43;100002.59;;;17.70;100.00
66560;BME280;53413;49.878;8.142;2023-05-09T07:02:09;99997.50;;;17.67;100.00
66560;BME280;53413;49.878;8.142;2023-05-09T07:04:34;99992.63;;;17.74;100.00
66560;BME280;53413;49.878;8.142;2023-05-09T07:06:59;99993.50;;;17.87;100.00
66560;BME280;53413;49.878;8.142;2023-05-09T07:09:25;99993.28;;;17.90;100.00
66560;BME280;53413;49.878;8.142;2023-05-09T07:11:55;99989.34;;;17.96;100.00
66560;BME280;53413;49.878;8.142;2023-05-09T07:14:21;99984.59;;;18.14;100.00
66560;BME280;53413;49.878;8.142;2023-05-09T07:16:46;99984.78;;;18.24;100.00
66560;BME280;53413;49.878;8.142;2023-05-09T07:19:11;99986.88;;;18.31;100.00
66560;BME280;53413;49.878;8.142;2023-05-09T07:21:37;99970.63;;;18.49;100.00
66560;BME280;53413;49.878;8.142;2023-05-09T07:24:02;99976.16;;;18.70;100.00
66560;BME280;53413;49.878;8.142;2023-05-09T07:26:28;99960.66;;;19.01;100.00
66560;BME280;53413;49.878;8.142;2023-05-09T07:28:54;99962.97;;;19.30;100.00
66560;BME280;53413;49.878;8.142;2023-05-09T07:31:19;99969.31;;;19.63;100.00
66560;BME280;53413;49.878;8.142;2023-05-09T07:33:44;99967.38;;;19.65;100.00
66560;BME280;53413;49.878;8.142;2023-05-09T07:36:10;99956.53;;;19.91;100.00
66560;BME280;53413;49.878;8.142;2023-05-09T07:38:40;99956.06;;;20.09;100.00
66560;BME280;53413;49.878;8.142;2023-05-09T07:41:06;99961.25;;;20.10;100.00
66560;BME280;53413;49.878;8.142;2023-05-09T07:43:31;99943.84;;;20.29;100.00
66560;BME280;53413;49.878;8.142;2023-05-09T07:45:57;99941.50;;;20.47;100.00
66560;BME280;53413;49.878;8.142;2023-05-09T07:48:22;99934.56;;;20.79;100.00
66560;BME280;53413;49.878;8.142;2023-05-09T07:50:47;99926.50;;;21.22;100.00
66560;BME280;53413;49.878;8.142;2023-05-09T07:53:13;99928.41;;;21.63;100.00
66560;BME280;53413;49.878;8.142;2023-05-09T07:55:38;99921.47;;;21.72;100.00
66560;BME280;53413;49.878;8.142;2023-05-09T07:58:04;99922.03;;;21.75;100.00
66560;BME280;53413;49.878;8.142;2023-05-09T08:00:29;99923.97;;;21.73;100.00
66560;BME280;53413;49.878;8.142;2023-05-09T08:02:55;99918.66;;;21.73;100.00
66560;BME280;53413;49.878;8.142;2023-05-09T08:05:20;99918.06;;;21.70;100.00
66560;BME280;53413;49.878;8.142;2023-05-09T08:07:46;99916.84;;;21.52;100.00
66560;BME280;53413;49.878;8.142;2023-05-09T08:10:11;99918.81;;;21.08;100.00
66560;BME280;53413;49.878;8.142;2023-05-09T08:12:37;99913.50;;;20.75;100.00
66560;BME280;53413;49.878;8.142;2023-05-09T08:15:02;99908.03;;;20.66;100.00
66560;BME280;53413;49.878;8.142;2023-05-09T08:17:28;99911.03;;;20.84;100.00
66560;BME280;53413;49.878;8.142;2023-05-09T08:19:53;99907.31;;;20.75;100.00
66560;BME280;53413;49.878;8.142;2023-05-09T08:22:18;99900.19;;;20.64;100.00
66560;BME280;53413;49.878;8.142;2023-05-09T08:24:45;99901.97;;;20.86;100.00
66560;BME280;53413;49.878;8.142;2023-05-09T08:27:11;99899.59;;;20.93;100.00
66560;BME280;53413;49.878;8.142;2023-05-09T08:29:38;99894.38;;;21.24;100.00
66560;BME280;53413;49.878;8.142;2023-05-09T08:32:04;99897.84;;;21.67;100.00
66560;BME280;53413;49.878;8.142;2023-05-09T08:34:29;99888.31;;;21.64;100.00
66560;BME280;53413;49.878;8.142;2023-05-09T08:37:01;99888.38;;;21.32;100.00
66560;BME280;53413;49.878;8.142;2023-05-09T08:39:28;99887.72;;;20.65;100.00
66560;BME280;53413;49.878;8.142;2023-05-09T08:41:58;99892.41;;;20.28;100.00
66560;BME280;53413;49.878;8.142;2023-05-09T08:44:25;99888.38;;;19.90;100.00
66560;BME280;53413;49.878;8.142;2023-05-09T08:47:01;99894.16;;;19.73;100.00
66560;BME280;53413;49.878;8.142;2023-05-09T08:49:27;99894.50;;;19.79;100.00
66560;BME280;53413;49.878;8.142;2023-05-09T08:51:53;99879.63;;;20.22;100.00
66560;BME280;53413;49.878;8.142;2023-05-09T08:54:20;99874.59;;;20.84;100.00
66560;BME280;53413;49.878;8.142;2023-05-09T08:56:46;99868.63;;;21.13;100.00
66560;BME280;53413;49.878;8.142;2023-05-09T08:59:12;99874.16;;;21.21;100.00
66560;BME280;53413;49.878;8.142;2023-05-09T09:01:39;99872.16;;;21.45;100.00
66560;BME280;53413;49.878;8.142;2023-05-09T09:06:33;99865.38;;;21.31;100.00
66560;BME280;53413;49.878;8.142;2023-05-09T09:08:59;99866.16;;;21.21;100.00
66560;BME280;53413;49.878;8.142;2023-05-09T09:11:25;99869.34;;;21.36;100.00
66560;BME280;53413;49.878;8.142;2023-05-09T09:13:53;99859.09;;;21.63;100.00
66560;BME280;53413;49.878;8.142;2023-05-09T09:16:21;99856.41;;;21.94;100.00
66560;BME280;53413;49.878;8.142;2023-05-09T09:18:47;99858.72;;;22.38;100.00
66560;BME280;53413;49.878;8.142;2023-05-09T09:21:14;99850.88;;;22.85;98.42
66560;BME280;53413;49.878;8.142;2023-05-09T09:23:44;99843.03;;;22.64;96.05
66560;BME280;53413;49.878;8.142;2023-05-09T09:26:12;99846.66;;;22.43;97.05
66560;BME280;53413;49.878;8.142;2023-05-09T09:28:38;99841.00;;;22.17;98.63
66560;BME280;53413;49.878;8.142;2023-05-09T09:31:26;99840.31;;;22.25;97.76
66560;BME280;53413;49.878;8.142;2023-05-09T09:33:59;99829.44;;;21.97;98.77
66560;BME280;53413;49.878;8.142;2023-05-09T09:36:26;99830.94;;;21.80;100.00
66560;BME280;53413;49.878;8.142;2023-05-09T09:38:57;99823.28;;;21.96;99.29
66560;BME280;53413;49.878;8.142;2023-05-09T09:41:32;99823.03;;;22.29;97.39
66560;BME280;53413;49.878;8.142;2023-05-09T09:43:57;99815.91;;;22.79;96.67
66560;BME280;53413;49.878;8.142;2023-05-09T09:46:23;99817.38;;;23.11;93.32
66560;BME280;53413;49.878;8.142;2023-05-09T09:48:49;99825.03;;;22.76;94.50
66560;BME280;53413;49.878;8.142;2023-05-09T09:51:19;99815.88;;;22.39;94.88
66560;BME280;53413;49.878;8.142;2023-05-09T09:53:45;99806.19;;;22.19;97.55
66560;BME280;53413;49.878;8.142;2023-05-09T09:56:11;99807.56;;;22.23;98.59
66560;BME280;53413;49.878;8.142;2023-05-09T09:58:37;99802.47;;;21.80;99.56
66560;BME280;53413;49.878;8.142;2023-05-09T10:01:10;99798.66;;;21.42;100.00
66560;BME280;53413;49.878;8.142;2023-05-09T10:03:39;99806.19;;;21.06;100.00
66560;BME280;53413;49.878;8.142;2023-05-09T10:06:12;99797.84;;;20.57;100.00
66560;BME280;53413;49.878;8.142;2023-05-09T10:08:39;99791.69;;;20.24;100.00
66560;BME280;53413;49.878;8.142;2023-05-09T10:11:05;99792.84;;;20.10;100.00
66560;BME280;53413;49.878;8.142;2023-05-09T10:13:33;99793.31;;;20.04;100.00
66560;BME280;53413;49.878;8.142;2023-05-09T10:16:00;99787.72;;;20.18;100.00
66560;BME280;53413;49.878;8.142;2023-05-09T10:18:28;99777.25;;;20.38;100.00
66560;BME280;53413;49.878;8.142;2023-05-09T10:20:56;99777.31;;;20.48;100.00
66560;BME280;53413;49.878;8.142;2023-05-09T10:23:25;99764.66;;;20.61;100.00
66560;BME280;53413;49.878;8.142;2023-05-09T10:26:15;99764.78;;;20.92;100.00
66560;BME280;53413;49.878;8.142;2023-05-09T10:28:44;99762.63;;;21.48;100.00
66560;BME280;53413;49.878;8.142;2023-05-09T10:31:27;99760.66;;;22.20;100.00
66560;BME280;53413;49.878;8.142;2023-05-09T10:33:53;99747.59;;;22.66;100.00
66560;BME280;53413;49.878;8.142;2023-05-09T10:36:21;99741.22;;;23.25;98.85
66560;BME280;53413;49.878;8.142;2023-05-09T10:38:48;99738.47;;;23.90;91.93
66560;BME280;53413;49.878;8.142;2023-05-09T10:41:18;99734.69;;;24.73;85.52
66560;BME280;53413;49.878;8.142;2023-05-09T10:43:46;99726.91;;;25.23;81.43
66560;BME280;53413;49.878;8.142;2023-05-09T10:46:12;99722.25;;;25.76;77.53
66560;BME280;53413;49.878;8.142;2023-05-09T10:48:39;99722.47;;;26.57;73.16
66560;BME280;53413;49.878;8.142;2023-05-09T10:51:06;99711.34;;;26.94;71.40
66560;BME280;53413;49.878;8.142;2023-05-09T10:53:49;99710.63;;;27.40;69.25
66560;BME280;53413;49.878;8.142;2023-05-09T10:56:41;99696.19;;;27.95;63.96
66560;BME280;53413;49.878;8.142;2023-05-09T11:01:58;99698.41;;;27.29;64.82
66560;BME280;53413;49.878;8.142;2023-05-09T11:04:28;99688.25;;;27.08;65.08
66560;BME280;53413;49.878;8.142;2023-05-09T11:06:54;99683.94;;;26.98;65.33
66560;BME280;53413;49.878;8.142;2023-05-09T11:14:30;99668.34;;;26.77;64.04
66560;BME280;53413;49.878;8.142;2023-05-09T11:16:57;99663.00;;;26.61;64.35
66560;BME280;53413;49.878;8.142;2023-05-09T11:19:34;99672.97;;;26.27;65.97
66560;BME280;53413;49.878;8.142;2023-05-09T11:22:10;99672.47;;;26.32;66.12
66560;BME280;53413;49.878;8.142;2023-05-09T11:24:37;99663.88;;;25.95;67.24
66560;BME280;53413;49.878;8.142;2023-05-09T11:27:13;99655.44;;;25.48;69.24
66560;BME280;53413;49.878;8.142;2023-05-09T11:29:43;99650.34;;;25.37;70.82
66560;BME280;53413;49.878;8.142;2023-05-09T11:32:12;99657.03;;;25.33;69.73
66560;BME280;53413;49.878;8.142;2023-05-09T11:34:42;99653.16;;;25.27;69.81
66560;BME280;53413;49.878;8.142;2023-05-09T11:37:29;99647.28;;;25.24;70.52
66560;BME280;53413;49.878;8.142;2023-05-09T11:40:00;99646.28;;;25.25;71.37
66560;BME280;53413;49.878;8.142;2023-05-09T11:42:29;99637.19;;;25.09;71.73
66560;BME280;53413;49.878;8.142;2023-05-09T11:44:56;99636.84;;;24.96;72.04
66560;BME280;53413;49.878;8.142;2023-05-09T11:47:22;99627.41;;;24.83;72.15
66560;BME280;53413;49.878;8.142;2023-05-09T11:49:48;99632.13;;;24.63;71.64
66560;BME280;53413;49.878;8.142;2023-05-09T11:52:18;99630.59;;;24.34;72.88
66560;BME280;53413;49.878;8.142;2023-05-09T11:54:43;99635.66;;;24.37;73.34
66560;BME280;53413;49.878;8.142;2023-05-09T11:57:09;99617.53;;;24.31;73.73
66560;BME280;53413;49.878;8.142;2023-05-09T11:59:35;99614.28;;;24.19;74.53
66560;BME280;53413;49.878;8.142;2023-05-09T12:02:02;99614.22;;;24.37;75.10
66560;BME280;53413;49.878;8.142;2023-05-09T12:04:29;99611.97;;;24.24;74.59
66560;BME280;53413;49.878;8.142;2023-05-09T12:06:57;99610.50;;;24.04;74.91
66560;BME280;53413;49.878;8.142;2023-05-09T12:09:24;99603.00;;;23.71;76.40
66560;BME280;53413;49.878;8.142;2023-05-09T12:11:53;99596.91;;;23.43;77.38
66560;BME280;53413;49.878;8.142;2023-05-09T12:14:45;99591.69;;;23.23;79.11
66560;BME280;53413;49.878;8.142;2023-05-09T12:17:10;99592.94;;;23.01;79.87
66560;BME280;53413;49.878;8.142;2023-05-09T12:19:36;99587.53;;;23.11;81.16
66560;BME280;53413;49.878;8.142;2023-05-09T12:22:03;99591.03;;;23.11;81.12
66560;BME280;53413;49.878;8.142;2023-05-09T12:24:34;99583.19;;;23.10;85.43
66560;BME280;53413;49.878;8.142;2023-05-09T12:27:00;99585.81;;;23.19;85.14
66560;BME280;53413;49.878;8.142;2023-05-09T12:29:26;99575.38;;;23.26;88.47
66560;BME280;53413;49.878;8.142;2023-05-09T12:31:53;99571.63;;;23.37;88.67
66560;BME280;53413;49.878;8.142;2023-05-09T12:34:18;99573.59;;;23.53;89.12
66560;BME280;53413;49.878;8.142;2023-05-09T12:36:45;99567.78;;;23.58;90.54
66560;BME280;53413;49.878;8.142;2023-05-09T12:39:18;99559.75;;;23.40;87.56
66560;BME280;53413;49.878;8.142;2023-05-09T12:41:49;99556.72;;;23.34;88.98
66560;BME280;53413;49.878;8.142;2023-05-09T12:44:24;99558.41;;;23.35;88.82
66560;BME280;53413;49.878;8.142;2023-05-09T12:47:03;99553.69;;;23.01;96.77
66560;BME280;53413;49.878;8.142;2023-05-09T12:49:29;99550.06;;;22.74;96.07
66560;BME280;53413;49.878;8.142;2023-05-09T12:51:57;99543.47;;;22.69;100.00
66560;BME280;53413;49.878;8.142;2023-05-09T12:54:24;99544.38;;;22.59;100.00
66560;BME280;53413;49.878;8.142;2023-05-09T12:56:51;99547.06;;;22.59;100.00
66560;BME280;53413;49.878;8.142;2023-05-09T12:59:24;99543.88;;;22.46;100.00
66560;BME280;53413;49.878;8.142;2023-05-09T13:01:55;99538.19;;;22.11;100.00
66560;BME280;53413;49.878;8.142;2023-05-09T13:04:20;99542.78;;;21.72;100.00
66560;BME280;53413;49.878;8.142;2023-05-09T13:06:50;99541.75;;;21.23;100.00
66560;BME280;53413;49.878;8.142;2023-05-09T13:09:16;99540.91;;;20.94;100.00